createdAt,value
2022-08-24T00:02:07.731Z,46.66
2022-08-24T00:04:38.710Z,46.61
2022-08-24T00:07:07.132Z,46.71
2022-08-24T00:09:49.527Z,46.73
2022-08-24T00:12:19.017Z,46.38
2022-08-24T00:14:45.623Z,46.19
2022-08-24T00:17:12.606Z,46.30
2022-08-24T00:19:39.588Z,46.51
2022-08-24T00:22:06.284Z,46.56
2022-08-24T00:24:34.134Z,46.38
2022-08-24T00:27:00.774Z,46.42
2022-08-24T00:29:27.425Z,46.32
2022-08-24T00:31:54.701Z,46.26
2022-08-24T00:34:21.360Z,46.32
2022-08-24T00:36:47.984Z,46.48
2022-08-24T00:39:14.781Z,46.58
2022-08-24T00:41:46.998Z,46.55
2022-08-24T00:44:14.423Z,46.66
2022-08-24T00:46:46.358Z,46.86
2022-08-24T00:49:28.930Z,47.12
2022-08-24T00:52:17.972Z,47.25
2022-08-24T00:54:50.388Z,47.64
2022-08-24T00:57:20.215Z,47.27
2022-08-24T00:59:52.342Z,47.31
2022-08-24T01:02:23.675Z,47.56
2022-08-24T01:04:55.105Z,47.88
2022-08-24T01:07:24.908Z,48.29
2022-08-24T01:09:53.905Z,48.43
2022-08-24T01:12:22.336Z,48.56
2022-08-24T01:14:49.421Z,48.76
2022-08-24T01:17:38.664Z,48.62
2022-08-24T01:20:08.690Z,48.82
2022-08-24T01:22:38.025Z,48.93
2022-08-24T01:25:06.425Z,48.97
2022-08-24T01:27:35.334Z,49.22
2022-08-24T01:30:08.404Z,49.36
2022-08-24T01:32:36.973Z,49.63
2022-08-24T01:35:04.165Z,50.00
2022-08-24T01:37:32.934Z,50.02
2022-08-24T01:40:03.832Z,50.13
2022-08-24T01:42:30.858Z,50.37
2022-08-24T01:44:57.430Z,50.33
2022-08-24T01:47:23.971Z,50.69
2022-08-24T01:49:50.634Z,50.73
2022-08-24T01:52:20.489Z,50.60
2022-08-24T01:54:47.553Z,50.72
2022-08-24T01:57:17.197Z,50.73
2022-08-24T01:59:43.982Z,51.10
2022-08-24T02:02:17.787Z,51.16
2022-08-24T02:04:44.429Z,51.17
2022-08-24T02:07:11.401Z,51.57
2022-08-24T02:09:38.816Z,51.32
2022-08-24T02:12:07.485Z,51.44
2022-08-24T02:14:35.388Z,51.85
2022-08-24T02:17:04.402Z,51.97
2022-08-24T02:19:31.243Z,52.06
2022-08-24T02:21:58.058Z,52.32
2022-08-24T02:24:24.564Z,52.41
2022-08-24T02:26:51.215Z,52.72
2022-08-24T02:29:17.771Z,52.89
2022-08-24T02:31:44.331Z,53.08
2022-08-24T02:34:11.128Z,53.26
2022-08-24T02:36:38.851Z,53.63
2022-08-24T02:39:06.835Z,53.40
2022-08-24T02:41:34.610Z,53.74
2022-08-24T02:44:01.357Z,53.90
2022-08-24T02:46:30.321Z,53.82
2022-08-24T02:49:10.393Z,54.37
2022-08-24T02:51:43.873Z,54.54
2022-08-24T02:54:12.985Z,54.81
2022-08-24T02:56:39.790Z,54.91
2022-08-24T02:59:07.827Z,55.38
2022-08-24T03:01:34.490Z,55.98
2022-08-24T03:04:01.165Z,55.81
2022-08-24T03:06:27.876Z,56.12
2022-08-24T03:08:56.491Z,56.38
2022-08-24T03:11:27.593Z,56.26
2022-08-24T03:13:55.532Z,56.46
2022-08-24T03:16:23.522Z,56.67
2022-08-24T03:18:50.115Z,56.67
2022-08-24T03:21:17.825Z,56.78
2022-08-24T03:23:44.421Z,56.96
2022-08-24T03:26:12.004Z,57.43
2022-08-24T03:28:39.099Z,57.22
2022-08-24T03:31:06.331Z,57.26
2022-08-24T03:33:34.112Z,57.51
2022-08-24T03:36:00.832Z,57.41
2022-08-24T03:38:28.338Z,57.42
2022-08-24T03:40:54.952Z,57.33
2022-08-24T03:43:40.498Z,57.47
2022-08-24T03:46:09.021Z,58.05
2022-08-24T03:48:37.036Z,57.51
2022-08-24T03:51:04.102Z,57.51
2022-08-24T03:53:30.741Z,57.78
2022-08-24T03:55:57.454Z,57.47
2022-08-24T03:58:24.442Z,57.79
2022-08-24T04:00:50.980Z,57.70
2022-08-24T04:03:17.664Z,57.88
2022-08-24T04:05:44.453Z,57.80
2022-08-24T04:08:11.252Z,57.93
2022-08-24T04:10:38.523Z,58.43
2022-08-24T04:13:06.201Z,58.55
2022-08-24T04:15:32.933Z,58.06
2022-08-24T04:17:59.490Z,58.22
2022-08-24T04:20:26.038Z,58.38
2022-08-24T04:22:53.619Z,57.90
2022-08-24T04:25:24.666Z,58.19
2022-08-24T04:27:51.924Z,58.32
2022-08-24T04:30:18.657Z,58.26
2022-08-24T04:32:45.404Z,58.84
2022-08-24T04:35:12.639Z,58.47
2022-08-24T04:37:39.266Z,58.55
2022-08-24T04:40:08.942Z,59.04
2022-08-24T04:42:37.426Z,58.63
2022-08-24T04:45:04.657Z,58.93
2022-08-24T04:47:31.241Z,59.22
2022-08-24T04:49:57.803Z,58.88
2022-08-24T04:52:24.420Z,59.14
2022-08-24T04:54:51.020Z,58.96
2022-08-24T04:57:18.480Z,58.84
2022-08-24T04:59:45.551Z,59.19
2022-08-24T05:02:12.565Z,58.90
2022-08-24T05:04:39.272Z,58.84
2022-08-24T05:07:06.340Z,58.71
2022-08-24T05:09:33.361Z,58.77
2022-08-24T05:12:00.099Z,58.79
2022-08-24T05:14:28.935Z,59.10
2022-08-24T05:16:56.025Z,59.28
2022-08-24T05:19:23.799Z,58.90
2022-08-24T05:21:50.847Z,58.72
2022-08-24T05:24:19.555Z,58.34
2022-08-24T05:26:46.406Z,58.17
2022-08-24T05:29:14.455Z,57.59
2022-08-24T05:31:44.813Z,57.68
2022-08-24T05:34:11.775Z,57.64
2022-08-24T05:36:39.419Z,57.46
2022-08-24T05:39:12.305Z,57.11
2022-08-24T05:41:44.147Z,57.35
2022-08-24T05:44:12.699Z,57.16
2022-08-24T05:46:39.544Z,56.56
2022-08-24T05:49:08.181Z,57.18
2022-08-24T05:51:35.543Z,56.38
2022-08-24T05:54:04.425Z,56.36
2022-08-24T05:56:32.088Z,56.10
2022-08-24T05:58:59.325Z,55.68
2022-08-24T06:01:26.985Z,55.79
2022-08-24T06:03:55.475Z,55.93
2022-08-24T06:06:23.453Z,55.87
2022-08-24T06:08:51.999Z,55.17
2022-08-24T06:11:30.318Z,55.70
2022-08-24T06:14:07.313Z,56.09
2022-08-24T06:16:40.405Z,56.06
2022-08-24T06:19:10.793Z,56.32
2022-08-24T06:21:38.004Z,55.86
2022-08-24T06:24:06.055Z,55.90
2022-08-24T06:26:51.435Z,55.77
2022-08-24T06:29:19.636Z,55.58
2022-08-24T06:31:49.262Z,55.37
2022-08-24T06:34:26.092Z,54.98
2022-08-24T06:36:52.834Z,55.58
2022-08-24T06:39:20.574Z,55.00
2022-08-24T06:41:47.127Z,53.89
2022-08-24T06:44:13.733Z,53.13
2022-08-24T06:46:40.559Z,52.93
2022-08-24T06:49:08.056Z,51.33
2022-08-24T06:51:34.669Z,51.60
2022-08-24T06:54:01.441Z,51.04
2022-08-24T06:56:28.426Z,50.26
2022-08-24T06:58:55.460Z,49.49
2022-08-24T07:01:25.473Z,50.02
2022-08-24T07:03:52.691Z,48.76
2022-08-24T07:06:19.326Z,47.99
2022-08-24T07:08:45.935Z,48.43
2022-08-24T07:11:20.844Z,47.95
2022-08-24T07:13:48.918Z,46.88
2022-08-24T07:16:20.266Z,46.79
2022-08-24T07:18:49.926Z,45.79
2022-08-24T07:21:19.936Z,46.25
2022-08-24T07:23:48.364Z,47.48
2022-08-24T07:26:23.134Z,46.38
2022-08-24T07:29:06.372Z,46.18
2022-08-24T07:34:03.649Z,46.48
2022-08-24T07:36:30.319Z,46.66
2022-08-24T07:38:57.375Z,45.91
2022-08-24T07:44:13.607Z,43.91
2022-08-24T07:46:41.188Z,44.16
2022-08-24T07:51:55.345Z,43.34
2022-08-24T07:54:22.069Z,43.91
2022-08-24T07:56:50.258Z,43.08
2022-08-24T07:59:17.895Z,44.17
2022-08-24T08:01:44.934Z,44.36
2022-08-24T08:04:14.127Z,44.22
2022-08-24T08:06:42.258Z,44.75
2022-08-24T08:09:08.835Z,44.52
2022-08-24T08:11:35.447Z,43.80
2022-08-24T08:14:03.339Z,43.87
2022-08-24T08:16:29.978Z,43.93
2022-08-24T08:19:11.988Z,44.68
2022-08-24T08:22:05.204Z,42.75
2022-08-24T08:24:31.819Z,43.47
2022-08-24T08:27:00.400Z,43.79
2022-08-24T08:29:27.840Z,43.21
2022-08-24T08:31:55.975Z,43.84
2022-08-24T08:34:22.842Z,43.16
2022-08-24T08:36:49.647Z,43.92
2022-08-24T08:39:18.658Z,42.84
2022-08-24T08:42:06.343Z,41.84
2022-08-24T08:44:44.943Z,41.11
2022-08-24T08:47:37.562Z,41.28
2022-08-24T08:50:18.725Z,40.11
2022-08-24T08:53:15.856Z,40.19
2022-08-24T08:55:53.320Z,39.28
2022-08-24T08:58:32.761Z,39.63
2022-08-24T09:01:24.798Z,39.94
2022-08-24T09:04:21.239Z,40.22
2022-08-24T09:07:27.462Z,40.51
2022-08-24T09:10:03.355Z,40.22
2022-08-24T09:13:09.101Z,40.80
2022-08-24T09:15:55.974Z,41.94
2022-08-24T09:18:30.261Z,41.06
2022-08-24T09:21:26.735Z,40.67
2022-08-24T09:24:27.376Z,40.99
2022-08-24T09:27:15.043Z,41.30
2022-08-24T09:30:09.999Z,41.01
2022-08-24T09:33:01.817Z,40.60
2022-08-24T09:36:00.260Z,40.27
2022-08-24T09:38:45.544Z,40.56
2022-08-24T09:41:49.615Z,39.98
2022-08-24T09:44:39.339Z,39.99
2022-08-24T09:47:33.966Z,39.74
2022-08-24T09:50:03.661Z,39.51
2022-08-24T09:52:58.316Z,39.44
2022-08-24T09:55:54.715Z,39.66
2022-08-24T09:58:25.173Z,38.63
2022-08-24T10:01:13.830Z,38.41
2022-08-24T10:03:55.937Z,38.52
2022-08-24T10:06:40.246Z,37.66
2022-08-24T10:09:20.623Z,36.82
2022-08-24T10:11:59.473Z,37.62
2022-08-24T10:14:45.789Z,37.32
2022-08-24T10:17:19.584Z,37.90
2022-08-24T10:20:04.833Z,38.23
2022-08-24T10:22:45.988Z,38.42
2022-08-24T10:25:30.992Z,37.46
2022-08-24T10:28:27.831Z,37.35
2022-08-24T10:31:28.087Z,36.79
2022-08-24T10:34:10.588Z,36.72
2022-08-24T10:37:31.468Z,36.11
2022-08-24T10:40:28.023Z,35.54
2022-08-24T10:43:25.996Z,33.81
2022-08-24T10:46:02.336Z,34.38
2022-08-24T10:48:33.471Z,34.94
2022-08-24T10:51:29.242Z,33.95
2022-08-24T10:53:57.187Z,33.34
2022-08-24T10:56:36.406Z,33.04
2022-08-24T10:59:11.780Z,32.69
2022-08-24T11:01:39.400Z,32.71
2022-08-24T11:04:11.939Z,32.82
2022-08-24T11:07:02.550Z,32.52
2022-08-24T11:09:49.369Z,32.36
2022-08-24T11:12:30.583Z,32.90
2022-08-24T11:15:22.156Z,32.32
2022-08-24T11:18:04.025Z,32.50
2022-08-24T11:20:34.492Z,32.59
2022-08-24T11:23:15.733Z,32.45
2022-08-24T11:25:53.075Z,31.91
2022-08-24T11:28:29.825Z,30.02
2022-08-24T11:30:56.482Z,30.53
2022-08-24T11:33:28.940Z,30.38
2022-08-24T11:35:57.994Z,30.28
2022-08-24T11:38:30.625Z,30.28
2022-08-24T11:40:57.173Z,30.05
2022-08-24T11:43:45.825Z,30.11
2022-08-24T11:46:26.683Z,30.44
2022-08-24T11:49:09.484Z,29.95
2022-08-24T11:52:04.035Z,30.69
2022-08-24T11:54:33.552Z,29.92
2022-08-24T11:57:39.173Z,29.41
2022-08-24T12:00:19.658Z,29.36
2022-08-24T12:03:20.467Z,29.15
2022-08-24T12:06:07.661Z,29.58
2022-08-24T12:08:59.225Z,28.75
2022-08-24T12:11:37.194Z,28.83
2022-08-24T12:14:29.765Z,28.31
2022-08-24T12:17:16.806Z,28.30
2022-08-24T12:20:25.823Z,29.30
2022-08-24T12:22:55.723Z,28.10
2022-08-24T12:25:41.168Z,28.10
2022-08-24T12:28:10.543Z,28.11
2022-08-24T12:30:37.263Z,28.29
2022-08-24T12:33:09.103Z,27.47
2022-08-24T12:35:54.228Z,27.36
2022-08-24T12:38:26.979Z,26.99
2022-08-24T12:41:14.637Z,26.81
2022-08-24T12:43:55.728Z,26.71
2022-08-24T12:46:26.948Z,26.36
2022-08-24T12:49:02.725Z,26.43
2022-08-24T12:51:39.656Z,26.44
2022-08-24T12:54:36.082Z,26.65
2022-08-24T12:57:27.314Z,26.31
2022-08-24T12:59:58.051Z,26.67
2022-08-24T13:02:32.067Z,26.53
2022-08-24T13:05:21.868Z,26.62
2022-08-24T13:07:49.605Z,25.90
2022-08-24T13:10:38.147Z,26.09
2022-08-24T13:13:04.615Z,26.20
2022-08-24T13:15:31.227Z,26.17
2022-08-24T13:18:10.364Z,27.25
2022-08-24T13:20:43.324Z,27.27
2022-08-24T13:23:13.374Z,26.69
2022-08-24T13:25:51.900Z,26.27
2022-08-24T13:28:21.364Z,26.28
2022-08-24T13:30:53.771Z,25.80
2022-08-24T13:33:30.432Z,25.88
2022-08-24T13:36:05.595Z,26.04
2022-08-24T13:38:34.974Z,26.69
2022-08-24T13:41:23.238Z,26.83
2022-08-24T13:44:16.868Z,26.02
2022-08-24T13:47:03.904Z,27.05
2022-08-24T13:49:49.107Z,26.40
2022-08-24T13:52:39.188Z,26.19
2022-08-24T13:55:20.944Z,25.61
2022-08-24T13:58:06.478Z,25.57
2022-08-24T14:00:42.463Z,26.26
2022-08-24T14:03:37.443Z,26.22
2022-08-24T14:06:30.328Z,25.48
2022-08-24T14:09:05.644Z,25.75
2022-08-24T14:11:48.181Z,25.91
2022-08-24T14:14:33.531Z,25.97
2022-08-24T14:17:37.814Z,26.26
2022-08-24T14:20:24.533Z,26.21
2022-08-24T14:22:58.200Z,25.95
2022-08-24T14:25:28.093Z,25.97
2022-08-24T14:27:54.789Z,26.11
2022-08-24T14:30:23.393Z,25.58
2022-08-24T14:33:03.463Z,25.66
2022-08-24T14:35:42.028Z,26.20
2022-08-24T14:38:24.081Z,26.01
2022-08-24T14:41:08.016Z,25.55
2022-08-24T14:43:56.560Z,25.68
2022-08-24T14:46:35.874Z,25.65
2022-08-24T14:49:18.509Z,25.77
2022-08-24T14:52:07.128Z,25.76
2022-08-24T14:54:41.741Z,25.97
2022-08-24T14:57:26.789Z,25.33
2022-08-24T14:59:59.497Z,25.16
2022-08-24T15:02:26.234Z,25.51
2022-08-24T15:04:58.473Z,25.20
2022-08-24T15:07:33.599Z,25.12
2022-08-24T15:10:02.025Z,25.20
2022-08-24T15:12:44.949Z,25.19
2022-08-24T15:15:19.083Z,24.64
2022-08-24T15:17:57.586Z,25.16
2022-08-24T15:20:35.929Z,24.79
2022-08-24T15:23:30.640Z,24.61
2022-08-24T15:26:09.517Z,25.17
2022-08-24T15:28:36.612Z,25.13
2022-08-24T15:31:09.160Z,24.07
2022-08-24T15:34:02.178Z,24.36
2022-08-24T15:36:32.371Z,24.29
2022-08-24T15:39:04.487Z,24.69
2022-08-24T15:41:35.816Z,24.49
2022-08-24T15:44:23.491Z,24.32
2022-08-24T15:47:04.723Z,24.12
2022-08-24T15:49:36.879Z,23.41
2022-08-24T15:52:09.260Z,24.33
2022-08-24T15:54:45.386Z,24.16
2022-08-24T15:57:18.161Z,24.76
2022-08-24T15:59:51.809Z,25.08
2022-08-24T16:02:30.984Z,24.93
2022-08-24T16:05:12.671Z,24.48
2022-08-24T16:08:02.938Z,24.63
2022-08-24T16:10:32.824Z,25.33
2022-08-24T16:13:17.447Z,24.82
2022-08-24T16:15:51.282Z,24.83
2022-08-24T16:18:20.404Z,24.76
2022-08-24T16:20:48.960Z,24.23
2022-08-24T16:23:44.358Z,24.70
2022-08-24T16:26:25.150Z,24.67
2022-08-24T16:28:53.628Z,24.58
2022-08-24T16:31:44.510Z,24.56
2022-08-24T16:34:29.705Z,24.71
2022-08-24T16:36:57.497Z,24.79
2022-08-24T16:39:24.855Z,24.32
2022-08-24T16:41:57.369Z,24.40
2022-08-24T16:44:26.437Z,24.99
2022-08-24T16:46:53.163Z,24.98
2022-08-24T16:49:19.710Z,25.01
2022-08-24T16:51:46.301Z,25.69
2022-08-24T16:54:13.634Z,25.68
2022-08-24T16:56:40.738Z,25.49
2022-08-24T16:59:08.352Z,25.43
2022-08-24T17:01:34.976Z,25.52
2022-08-24T17:04:01.608Z,25.87
2022-08-24T17:06:28.259Z,25.80
2022-08-24T17:08:54.869Z,26.16
2022-08-24T17:11:21.523Z,26.20
2022-08-24T17:13:50.568Z,26.50
2022-08-24T17:16:18.543Z,26.26
2022-08-24T17:18:45.215Z,25.94
2022-08-24T17:21:11.891Z,26.29
2022-08-24T17:23:40.753Z,26.59
2022-08-24T17:26:20.621Z,26.19
2022-08-24T17:28:49.506Z,26.63
2022-08-24T17:31:16.151Z,26.42
2022-08-24T17:33:42.887Z,26.33
2022-08-24T17:36:15.330Z,26.37
2022-08-24T17:38:53.146Z,26.66
2022-08-24T17:41:23.668Z,26.85
2022-08-24T17:43:50.663Z,26.76
2022-08-24T17:46:18.795Z,27.37
2022-08-24T17:48:46.480Z,27.36
2022-08-24T17:51:13.854Z,27.12
2022-08-24T17:53:40.621Z,27.62
2022-08-24T17:56:08.256Z,27.96
2022-08-24T17:58:58.110Z,27.84
2022-08-24T18:01:24.912Z,28.25
2022-08-24T18:03:51.764Z,28.17
2022-08-24T18:06:21.165Z,28.43
2022-08-24T18:08:49.026Z,28.15
2022-08-24T18:11:15.835Z,28.82
2022-08-24T18:13:42.657Z,28.89
2022-08-24T18:16:17.368Z,29.01
2022-08-24T18:18:43.974Z,29.13
2022-08-24T18:21:10.618Z,29.20
2022-08-24T18:23:43.375Z,29.28
2022-08-24T18:26:11.254Z,29.57
2022-08-24T18:28:38.169Z,29.62
2022-08-24T18:31:09.825Z,29.52
2022-08-24T18:33:36.355Z,29.80
2022-08-24T18:36:03.063Z,30.07
2022-08-24T18:38:29.785Z,30.52
2022-08-24T18:40:56.554Z,30.52
2022-08-24T18:43:24.082Z,30.92
2022-08-24T18:45:51.955Z,31.22
2022-08-24T18:48:18.795Z,31.46
2022-08-24T18:50:45.528Z,31.71
2022-08-24T18:53:13.451Z,31.59
2022-08-24T18:55:42.471Z,31.61
2022-08-24T18:58:09.038Z,31.70
2022-08-24T19:00:35.686Z,32.01
2022-08-24T19:03:06.394Z,31.75
2022-08-24T19:05:33.331Z,31.91
2022-08-24T19:07:59.932Z,32.30
2022-08-24T19:10:31.975Z,32.54
2022-08-24T19:13:02.088Z,31.97
2022-08-24T19:15:39.194Z,32.05
2022-08-24T19:18:13.674Z,32.60
2022-08-24T19:20:48.588Z,32.02
2022-08-24T19:23:22.580Z,31.79
2022-08-24T19:25:50.488Z,31.56
2022-08-24T19:28:18.792Z,30.84
2022-08-24T19:30:46.857Z,31.40
2022-08-24T19:33:26.186Z,31.25
2022-08-24T19:35:53.164Z,31.05
2022-08-24T19:38:24.822Z,30.93
2022-08-24T19:40:53.203Z,31.22
2022-08-24T19:43:23.799Z,30.87
2022-08-24T19:46:03.413Z,31.30
2022-08-24T19:48:34.440Z,30.96
2022-08-24T19:51:10.166Z,31.87
2022-08-24T19:53:37.723Z,31.99
2022-08-24T19:56:06.607Z,32.22
2022-08-24T19:58:38.946Z,32.29
2022-08-24T20:01:13.359Z,32.10
2022-08-24T20:03:40.926Z,32.16
2022-08-24T20:06:07.631Z,32.57
2022-08-24T20:08:38.571Z,32.42
2022-08-24T20:11:06.300Z,32.62
2022-08-24T20:13:32.885Z,33.12
2022-08-24T20:15:59.582Z,32.88
2022-08-24T20:18:35.794Z,32.82
2022-08-24T20:21:03.035Z,33.05
2022-08-24T20:23:30.501Z,33.55
2022-08-24T20:25:59.150Z,33.52
2022-08-24T20:28:37.845Z,33.74
2022-08-24T20:31:04.991Z,33.86
2022-08-24T20:33:31.839Z,33.55
2022-08-24T20:35:59.478Z,33.59
2022-08-24T20:38:31.605Z,33.44
2022-08-24T20:40:59.557Z,33.29
2022-08-24T20:43:26.227Z,33.11
2022-08-24T20:45:53.184Z,33.46
2022-08-24T20:48:27.223Z,33.52
2022-08-24T20:50:54.227Z,33.38
2022-08-24T20:53:20.831Z,33.29
2022-08-24T20:55:47.833Z,33.28
2022-08-24T20:58:19.066Z,33.39
2022-08-24T21:00:46.457Z,33.33
2022-08-24T21:03:18.486Z,33.23
2022-08-24T21:05:45.850Z,33.48
2022-08-24T21:08:14.223Z,33.87
2022-08-24T21:10:42.295Z,33.70
2022-08-24T21:13:09.321Z,33.66
2022-08-24T21:15:38.406Z,33.83
2022-08-24T21:18:05.505Z,34.29
2022-08-24T21:20:32.815Z,34.54
2022-08-24T21:22:59.482Z,34.78
2022-08-24T21:25:27.343Z,35.58
2022-08-24T21:27:54.394Z,35.85
2022-08-24T21:30:22.467Z,36.24
2022-08-24T21:33:08.533Z,36.38
2022-08-24T21:35:36.792Z,36.76
2022-08-24T21:38:05.112Z,36.74
2022-08-24T21:40:32.919Z,37.08
2022-08-24T21:42:59.688Z,37.30
2022-08-24T21:45:26.752Z,37.39
2022-08-24T21:47:54.052Z,37.42
2022-08-24T21:50:21.041Z,37.47
2022-08-24T21:52:53.894Z,38.07
2022-08-24T21:55:21.599Z,38.02
2022-08-24T21:57:48.342Z,37.97
2022-08-24T22:00:18.953Z,37.86
2022-08-24T22:02:48.039Z,38.04
2022-08-24T22:05:16.235Z,38.22
2022-08-24T22:07:42.998Z,38.47
2022-08-24T22:10:10.943Z,38.44
2022-08-24T22:12:40.095Z,39.08
2022-08-24T22:15:09.368Z,38.94
2022-08-24T22:17:36.051Z,39.03
2022-08-24T22:20:04.474Z,38.92
2022-08-24T22:22:32.348Z,39.22
2022-08-24T22:24:59.169Z,38.97
2022-08-24T22:27:27.086Z,39.32
2022-08-24T22:29:53.670Z,39.44
2022-08-24T22:32:20.210Z,39.35
2022-08-24T22:34:46.937Z,39.74
2022-08-24T22:37:13.508Z,39.83
2022-08-24T22:39:40.092Z,40.20
2022-08-24T22:42:06.935Z,40.66
2022-08-24T22:44:34.296Z,40.78
2022-08-24T22:47:03.913Z,40.77
2022-08-24T22:49:41.159Z,41.15
2022-08-24T22:52:08.245Z,41.84
2022-08-24T22:54:35.114Z,41.44
2022-08-24T22:57:03.459Z,41.26
2022-08-24T22:59:41.955Z,41.40
2022-08-24T23:02:11.428Z,41.45
2022-08-24T23:04:41.320Z,41.69
2022-08-24T23:07:08.216Z,41.88
2022-08-24T23:09:44.359Z,41.99
2022-08-24T23:12:16.989Z,42.12
2022-08-24T23:14:45.118Z,42.26
2022-08-24T23:17:12.379Z,42.51
2022-08-24T23:20:08.140Z,42.97
2022-08-24T23:22:39.439Z,43.04
2022-08-24T23:25:09.335Z,43.48
2022-08-24T23:27:38.466Z,43.56
2022-08-24T23:30:11.582Z,43.72
2022-08-24T23:32:39.276Z,44.02
2022-08-24T23:35:06.480Z,44.16
2022-08-24T23:37:33.075Z,44.43
2022-08-24T23:39:59.708Z,44.58
2022-08-24T23:42:26.304Z,44.63
2022-08-24T23:44:53.076Z,45.06
2022-08-24T23:47:20.213Z,44.79
2022-08-24T23:49:47.822Z,44.79
2022-08-24T23:52:26.522Z,45.23
2022-08-24T23:55:05.205Z,45.14
2022-08-24T23:57:44.892Z,45.31
